createdAt,value
2023-01-09T00:00:34.087Z,94.6
2023-01-09T00:01:48.360Z,94.6
2023-01-09T00:03:02.758Z,94.8
2023-01-09T00:04:17.092Z,95
2023-01-09T00:05:31.369Z,95.4
2023-01-09T00:06:45.651Z,95.2
2023-01-09T00:08:00.014Z,95.4
2023-01-09T00:09:14.255Z,95.5
2023-01-09T00:10:28.532Z,95.4
2023-01-09T00:11:42.805Z,95.4
2023-01-09T00:12:57.043Z,95.4
2023-01-09T00:14:11.384Z,96
2023-01-09T00:15:25.682Z,96.2
2023-01-09T00:16:40.020Z,96
2023-01-09T00:17:53.421Z,96.2
2023-01-09T00:19:07.752Z,96.5
2023-01-09T00:20:21.092Z,96.1
2023-01-09T00:21:35.381Z,96.1
2023-01-09T00:22:49.786Z,96.1
2023-01-09T00:24:04.101Z,95.8
2023-01-09T00:25:18.400Z,95.7
2023-01-09T00:26:32.625Z,96.1
2023-01-09T00:27:46.980Z,96.4
2023-01-09T00:29:01.294Z,96.5
2023-01-09T00:31:29.861Z,96.9
2023-01-09T00:32:44.270Z,96.9
2023-01-09T00:33:58.596Z,96.9
2023-01-09T00:35:12.874Z,96.8
2023-01-09T00:37:41.561Z,97.1
2023-01-09T00:38:55.889Z,97.3
2023-01-09T00:40:10.157Z,97.5
2023-01-09T00:41:24.448Z,97.7
2023-01-09T00:42:38.846Z,97.9
2023-01-09T00:45:07.452Z,98.6
2023-01-09T00:46:21.741Z,98.6
2023-01-09T00:47:36.140Z,98.8
2023-01-09T00:48:50.477Z,98.8
2023-01-09T00:50:04.757Z,98.5
2023-01-09T00:51:19.139Z,98.5
2023-01-09T00:52:32.523Z,98.5
2023-01-09T00:53:46.861Z,98.8
2023-01-09T00:55:01.186Z,98.7
2023-01-09T00:56:14.502Z,98.7
2023-01-09T00:57:28.860Z,98.7
2023-01-09T00:59:57.438Z,99.1
2023-01-09T01:01:11.834Z,99.3
2023-01-09T01:02:26.253Z,99.4
2023-01-09T01:03:40.575Z,99.7
2023-01-09T01:04:54.839Z,100
2023-01-09T01:06:09.134Z,100
2023-01-09T01:07:23.539Z,100
2023-01-09T01:08:37.850Z,100
2023-01-09T01:09:52.146Z,100
2023-01-09T01:11:06.421Z,100
2023-01-09T01:12:20.830Z,100
2023-01-09T01:13:35.148Z,100
2023-01-09T01:14:49.423Z,100
2023-01-09T01:16:03.716Z,100
2023-01-09T01:17:18.126Z,100
2023-01-09T01:18:32.449Z,100
2023-01-09T01:19:46.725Z,100
2023-01-09T01:21:01.002Z,100
2023-01-09T01:22:15.414Z,100
2023-01-09T01:23:29.730Z,100
2023-01-09T01:24:44.012Z,100
2023-01-09T01:25:58.297Z,100
2023-01-09T01:27:12.695Z,100
2023-01-09T01:28:27.028Z,100
2023-01-09T01:29:41.299Z,100
2023-01-09T01:30:55.584Z,100
2023-01-09T01:32:09.990Z,100
2023-01-09T01:33:24.325Z,100
2023-01-09T01:34:38.599Z,100
2023-01-09T01:35:52.877Z,100
2023-01-09T01:37:07.288Z,100
2023-01-09T01:38:21.611Z,100
2023-01-09T01:39:35.897Z,100
2023-01-09T01:40:50.167Z,100
2023-01-09T01:42:04.576Z,100
2023-01-09T01:43:18.902Z,100
2023-01-09T01:44:33.185Z,100
2023-01-09T01:45:47.473Z,100
2023-01-09T01:47:01.930Z,100
2023-01-09T01:48:16.271Z,100
2023-01-09T01:49:29.661Z,100
2023-01-09T01:50:43.024Z,100
2023-01-09T01:51:57.354Z,100
2023-01-09T01:53:10.749Z,100
2023-01-09T01:54:25.076Z,100
2023-01-09T01:56:53.820Z,100
2023-01-09T01:58:08.164Z,100
2023-01-09T02:00:36.846Z,100
2023-01-09T02:01:51.244Z,100
2023-01-09T02:03:05.589Z,100
2023-01-09T02:04:19.931Z,100
2023-01-09T02:05:33.265Z,100
2023-01-09T02:06:47.687Z,100
2023-01-09T02:08:01.996Z,100
2023-01-09T02:09:16.291Z,100
2023-01-09T02:10:30.568Z,100
2023-01-09T02:11:44.964Z,100
2023-01-09T02:12:59.288Z,100
2023-01-09T02:14:13.580Z,100
2023-01-09T02:15:27.861Z,100
2023-01-09T02:16:42.267Z,100
2023-01-09T02:17:56.588Z,100
2023-01-09T02:19:10.876Z,100
2023-01-09T02:20:25.151Z,100
2023-01-09T02:22:53.883Z,100
2023-01-09T02:24:08.157Z,100
2023-01-09T02:26:36.849Z,100
2023-01-09T02:27:51.181Z,100
2023-01-09T02:30:19.729Z,100
2023-01-09T02:31:34.131Z,100
2023-01-09T02:32:48.463Z,100
2023-01-09T02:34:02.747Z,100
2023-01-09T02:35:17.029Z,100
2023-01-09T02:36:31.489Z,100
2023-01-09T02:37:45.828Z,100
2023-01-09T02:39:00.165Z,100
2023-01-09T02:40:13.565Z,100
2023-01-09T02:41:27.960Z,100
2023-01-09T02:42:42.312Z,100
2023-01-09T02:43:56.646Z,100
2023-01-09T02:45:10.983Z,100
2023-01-09T02:46:24.328Z,100
2023-01-09T02:47:38.665Z,100
2023-01-09T02:48:52.932Z,100
2023-01-09T02:50:07.219Z,100
2023-01-09T02:51:21.628Z,100
2023-01-09T02:52:35.944Z,100
2023-01-09T02:53:50.219Z,100
2023-01-09T02:55:04.518Z,100
2023-01-09T02:56:18.919Z,100
2023-01-09T02:57:33.234Z,100
2023-01-09T02:58:47.516Z,100
2023-01-09T03:00:01.794Z,100
2023-01-09T03:01:16.212Z,100
2023-01-09T03:02:30.540Z,100
2023-01-09T03:03:44.944Z,100
2023-01-09T03:04:59.267Z,100
2023-01-09T03:06:13.547Z,100
2023-01-09T03:07:27.942Z,100
2023-01-09T03:08:42.269Z,100
2023-01-09T03:09:56.543Z,100
2023-01-09T03:11:10.829Z,100
2023-01-09T03:12:25.250Z,100
2023-01-09T03:13:39.563Z,100
2023-01-09T03:14:53.837Z,100
2023-01-09T03:16:08.132Z,100
2023-01-09T03:17:22.538Z,100
2023-01-09T03:18:36.858Z,100
2023-01-09T03:19:51.137Z,100
2023-01-09T03:21:05.412Z,100
2023-01-09T03:22:19.821Z,100
2023-01-09T03:23:34.152Z,100
2023-01-09T03:24:48.428Z,100
2023-01-09T03:26:02.709Z,100
2023-01-09T03:27:17.125Z,100
2023-01-09T03:29:45.731Z,100
2023-01-09T03:30:59.994Z,100
2023-01-09T03:32:14.409Z,100
2023-01-09T03:33:28.738Z,100
2023-01-09T03:34:43.011Z,100
2023-01-09T03:35:57.288Z,100
2023-01-09T03:37:11.711Z,100
2023-01-09T03:38:26.024Z,100
2023-01-09T03:39:40.309Z,100
2023-01-09T03:40:54.591Z,100
2023-01-09T03:42:08.986Z,100
2023-01-09T03:44:37.591Z,100
2023-01-09T03:45:51.918Z,100
2023-01-09T03:47:06.143Z,100
2023-01-09T03:48:20.459Z,100
2023-01-09T03:49:34.747Z,100
2023-01-09T03:50:48.085Z,100
2023-01-09T03:52:01.382Z,100
2023-01-09T03:53:15.628Z,100
2023-01-09T03:54:29.838Z,100
2023-01-09T03:55:44.082Z,100
2023-01-09T03:56:58.306Z,100
2023-01-09T03:58:12.592Z,100
2023-01-09T03:59:26.836Z,100
2023-01-09T04:01:55.292Z,100
2023-01-09T04:03:09.522Z,100
2023-01-09T04:04:23.818Z,100
2023-01-09T04:05:38.063Z,100
2023-01-09T04:06:52.292Z,100
2023-01-09T04:08:06.520Z,100
2023-01-09T04:09:20.747Z,100
2023-01-09T04:10:35.034Z,100
2023-01-09T04:11:49.277Z,100
2023-01-09T04:13:03.501Z,100
2023-01-09T04:14:17.744Z,100
2023-01-09T04:15:31.961Z,100
2023-01-09T04:16:46.260Z,100
2023-01-09T04:18:00.513Z,100
2023-01-09T04:19:14.775Z,100
2023-01-09T04:20:29.109Z,100
2023-01-09T04:21:43.393Z,100
2023-01-09T04:22:57.850Z,100
2023-01-09T04:24:12.199Z,100
2023-01-09T04:25:25.575Z,100
2023-01-09T04:26:39.874Z,100
2023-01-09T04:27:54.191Z,100
2023-01-09T04:29:08.527Z,100
2023-01-09T04:30:21.865Z,100
2023-01-09T04:31:36.144Z,100
2023-01-09T04:32:50.562Z,100
2023-01-09T04:34:04.889Z,100
2023-01-09T04:35:19.165Z,100
2023-01-09T04:36:33.438Z,100
2023-01-09T04:37:47.844Z,100
2023-01-09T04:39:02.184Z,100
2023-01-09T04:40:16.449Z,100
2023-01-09T04:41:30.738Z,100
2023-01-09T04:42:45.140Z,100
2023-01-09T04:43:59.461Z,100
2023-01-09T04:45:13.742Z,100
2023-01-09T04:46:28.034Z,100
2023-01-09T04:47:42.437Z,100
2023-01-09T04:48:56.752Z,100
2023-01-09T04:50:11.046Z,100
2023-01-09T04:51:25.329Z,100
2023-01-09T04:52:39.731Z,100
2023-01-09T04:53:54.054Z,100
2023-01-09T04:55:08.327Z,100
2023-01-09T04:56:22.618Z,100
2023-01-09T04:57:37.022Z,100
2023-01-09T04:58:51.345Z,100
2023-01-09T05:00:05.623Z,100
2023-01-09T05:01:19.960Z,100
2023-01-09T05:03:48.713Z,100
2023-01-09T05:05:02.059Z,100
2023-01-09T05:06:16.340Z,100
2023-01-09T05:07:30.707Z,100
2023-01-09T05:08:44.998Z,100
2023-01-09T05:09:59.282Z,100
2023-01-09T05:11:13.563Z,100
2023-01-09T05:12:27.977Z,100
2023-01-09T05:13:42.284Z,100
2023-01-09T05:14:56.572Z,100
2023-01-09T05:16:10.849Z,100
2023-01-09T05:17:25.251Z,100
2023-01-09T05:18:39.584Z,100
2023-01-09T05:19:53.812Z,100
2023-01-09T05:21:08.038Z,100
2023-01-09T05:22:22.322Z,100
2023-01-09T05:23:36.725Z,100
2023-01-09T05:24:51.048Z,100
2023-01-09T05:26:05.331Z,100
2023-01-09T05:27:19.613Z,100
2023-01-09T05:28:34.021Z,100
2023-01-09T05:29:48.339Z,100
2023-01-09T05:31:02.618Z,100
2023-01-09T05:32:16.911Z,100
2023-01-09T05:33:31.309Z,100
2023-01-09T05:34:45.635Z,100
2023-01-09T05:35:59.974Z,100
2023-01-09T05:37:13.325Z,100
2023-01-09T05:38:27.610Z,100
2023-01-09T05:39:40.892Z,100
2023-01-09T05:40:55.127Z,100
2023-01-09T05:42:09.416Z,100
2023-01-09T05:43:23.666Z,100
2023-01-09T05:44:37.899Z,100
2023-01-09T05:45:52.111Z,100
2023-01-09T05:48:20.646Z,100
2023-01-09T05:49:34.892Z,100
2023-01-09T05:50:49.106Z,100
2023-01-09T05:52:03.330Z,100
2023-01-09T05:53:17.556Z,100
2023-01-09T05:54:31.860Z,100
2023-01-09T05:55:46.097Z,100
2023-01-09T05:57:00.334Z,100
2023-01-09T05:58:14.550Z,100
2023-01-09T05:59:28.791Z,100
2023-01-09T06:00:43.085Z,100
2023-01-09T06:01:57.331Z,100
2023-01-09T06:03:11.557Z,100
2023-01-09T06:04:25.776Z,100
2023-01-09T06:05:40.010Z,100
2023-01-09T06:06:54.313Z,100
2023-01-09T06:08:08.539Z,100
2023-01-09T06:09:22.768Z,100
2023-01-09T06:10:37.066Z,100
2023-01-09T06:11:50.403Z,100
2023-01-09T06:13:04.747Z,100
2023-01-09T06:14:18.088Z,100
2023-01-09T06:15:32.364Z,100
2023-01-09T06:16:46.783Z,100
2023-01-09T06:18:01.095Z,100
2023-01-09T06:19:15.383Z,100
2023-01-09T06:20:29.661Z,100
2023-01-09T06:21:44.027Z,100
2023-01-09T06:22:58.324Z,99.9
2023-01-09T06:24:12.596Z,99.8
2023-01-09T06:25:26.892Z,99.6
2023-01-09T06:26:41.247Z,99.3
2023-01-09T06:27:55.470Z,99.1
2023-01-09T06:29:09.768Z,99.3
2023-01-09T06:30:24.091Z,99.3
2023-01-09T06:31:38.361Z,99
2023-01-09T06:32:52.762Z,98.7
2023-01-09T06:34:07.100Z,98.8
2023-01-09T06:35:21.342Z,98.2
2023-01-09T06:36:35.604Z,98
2023-01-09T06:37:50.021Z,98
2023-01-09T06:39:04.345Z,97.9
2023-01-09T06:40:18.578Z,97.6
2023-01-09T06:41:32.800Z,97.7
2023-01-09T06:42:47.032Z,97.4
2023-01-09T06:44:01.324Z,97.2
2023-01-09T06:45:15.622Z,97.3
2023-01-09T06:46:28.959Z,97.5
2023-01-09T06:47:43.233Z,97.3
2023-01-09T06:48:57.537Z,98.2
2023-01-09T06:50:11.817Z,98
2023-01-09T06:51:25.179Z,98
2023-01-09T06:52:38.528Z,97.9
2023-01-09T06:53:52.853Z,97.3
2023-01-09T06:55:06.199Z,97
2023-01-09T06:56:20.493Z,96.7
2023-01-09T06:57:34.901Z,96.8
2023-01-09T06:58:49.214Z,96.3
2023-01-09T07:00:03.502Z,96.1
2023-01-09T07:01:17.788Z,96.1
2023-01-09T07:03:46.436Z,95.9
2023-01-09T07:05:00.651Z,95.9
2023-01-09T07:06:14.938Z,96
2023-01-09T07:07:29.171Z,95.7
2023-01-09T07:08:43.474Z,95.8
2023-01-09T07:09:57.710Z,95.4
2023-01-09T07:11:11.942Z,95.4
2023-01-09T07:12:26.167Z,95.6
2023-01-09T07:13:40.392Z,95.5
2023-01-09T07:14:54.679Z,95.4
2023-01-09T07:16:08.923Z,95.3
2023-01-09T07:17:23.145Z,95
2023-01-09T07:18:37.387Z,95.5
2023-01-09T07:19:51.607Z,95.3
2023-01-09T07:22:20.155Z,94.7
2023-01-09T07:23:34.525Z,94.6
2023-01-09T07:24:48.743Z,94.7
2023-01-09T07:26:02.979Z,94.7
2023-01-09T07:27:17.279Z,94.6
2023-01-09T07:28:31.508Z,94.4
2023-01-09T07:29:45.742Z,94.5
2023-01-09T07:30:59.962Z,93.9
2023-01-09T07:32:14.189Z,93.9
2023-01-09T07:33:28.501Z,93.8
2023-01-09T07:34:42.726Z,94
2023-01-09T07:35:56.954Z,93.8
2023-01-09T07:37:11.181Z,93.5
2023-01-09T07:38:25.408Z,93.5
2023-01-09T07:39:39.000Z,94.2
2023-01-09T07:40:53.953Z,93.7
2023-01-09T07:42:08.191Z,93.8
2023-01-09T07:43:22.413Z,93.8
2023-01-09T07:44:36.639Z,94
2023-01-09T07:47:05.170Z,93.2
2023-01-09T07:48:19.402Z,93.7
2023-01-09T07:49:33.639Z,93.2
2023-01-09T07:50:47.858Z,93.6
2023-01-09T07:52:02.153Z,93.6
2023-01-09T07:53:16.396Z,93.9
2023-01-09T07:54:30.681Z,94.2
2023-01-09T07:55:44.009Z,94.1
2023-01-09T07:56:58.309Z,94.4
2023-01-09T07:58:12.606Z,94.2
2023-01-09T07:59:25.952Z,94.1
2023-01-09T08:00:39.290Z,94.3
2023-01-09T08:01:53.565Z,94
2023-01-09T08:03:06.871Z,94.1
2023-01-09T08:04:21.095Z,94
2023-01-09T08:05:35.392Z,93.6
2023-01-09T08:06:49.628Z,93.9
2023-01-09T08:08:03.863Z,94.4
2023-01-09T08:09:18.078Z,94
2023-01-09T08:10:32.308Z,93.8
2023-01-09T08:11:46.614Z,93.6
2023-01-09T08:13:00.855Z,93.7
2023-01-09T08:14:15.088Z,93.8
2023-01-09T08:15:29.302Z,93.3
2023-01-09T08:16:43.542Z,93.3
2023-01-09T08:17:57.835Z,93.2
2023-01-09T08:19:12.068Z,93.2
2023-01-09T08:20:26.309Z,93.3
2023-01-09T08:21:40.520Z,93.1
2023-01-09T08:22:54.749Z,93.3
2023-01-09T08:24:09.044Z,93.3
2023-01-09T08:25:23.286Z,93.2
2023-01-09T08:26:37.523Z,93.1
2023-01-09T08:27:51.748Z,93.5
2023-01-09T08:29:05.983Z,93.1
2023-01-09T08:30:20.279Z,92.7
2023-01-09T08:31:34.516Z,92.6
2023-01-09T08:34:03.028Z,93
2023-01-09T08:35:16.366Z,93.5
2023-01-09T08:36:30.639Z,92.9
2023-01-09T08:37:44.922Z,92.8
2023-01-09T08:38:58.219Z,92.9
2023-01-09T08:40:12.520Z,93.1
2023-01-09T08:41:26.757Z,92.7
2023-01-09T08:42:40.991Z,92.9
2023-01-09T08:43:55.212Z,92.9
2023-01-09T08:45:09.449Z,92.7
2023-01-09T08:46:23.748Z,92.6
2023-01-09T08:47:37.996Z,92.1
2023-01-09T08:48:52.220Z,92.3
2023-01-09T08:50:06.440Z,92.4
2023-01-09T08:51:20.668Z,92.1
2023-01-09T08:52:34.976Z,92
2023-01-09T08:53:49.211Z,91.9
2023-01-09T08:55:03.439Z,92
2023-01-09T08:56:17.667Z,91.9
2023-01-09T08:57:31.882Z,91.7
2023-01-09T08:58:46.184Z,91.2
2023-01-09T09:00:00.434Z,91.1
2023-01-09T09:01:14.660Z,91.7
2023-01-09T09:02:28.877Z,91
2023-01-09T09:04:57.417Z,89.4
2023-01-09T09:06:11.649Z,89.7
2023-01-09T09:07:25.887Z,89.3
2023-01-09T09:08:40.106Z,90.2
2023-01-09T09:09:54.380Z,90.1
2023-01-09T09:11:08.695Z,90.3
2023-01-09T09:12:22.975Z,90
2023-01-09T09:13:36.278Z,90.3
2023-01-09T09:14:50.496Z,90
2023-01-09T09:16:04.792Z,90.1
2023-01-09T09:17:19.033Z,90.4
2023-01-09T09:18:33.263Z,89.7
2023-01-09T09:19:47.481Z,89.6
2023-01-09T09:21:01.719Z,90
2023-01-09T09:22:16.019Z,89.4
2023-01-09T09:23:30.249Z,89.3
2023-01-09T09:24:44.493Z,89
2023-01-09T09:25:58.710Z,88.5
2023-01-09T09:27:12.942Z,88.9
2023-01-09T09:28:27.240Z,88.1
2023-01-09T09:29:41.482Z,88.8
2023-01-09T09:30:55.698Z,88.3
2023-01-09T09:33:24.167Z,88.7
2023-01-09T09:34:38.469Z,88.1
2023-01-09T09:35:52.692Z,87.9
2023-01-09T09:37:06.923Z,87.8
2023-01-09T09:38:21.151Z,88.8
2023-01-09T09:39:35.380Z,87.9
2023-01-09T09:40:49.676Z,88.4
2023-01-09T09:42:03.931Z,88.5
2023-01-09T09:43:18.152Z,87.8
2023-01-09T09:44:32.442Z,87.5
2023-01-09T09:45:45.773Z,87.7
2023-01-09T09:47:00.053Z,87.3
2023-01-09T09:48:14.348Z,87
2023-01-09T09:49:28.618Z,87.8
2023-01-09T09:50:42.897Z,87.5
2023-01-09T09:51:57.202Z,87.8
2023-01-09T09:53:11.479Z,87.3
2023-01-09T09:54:24.780Z,87.9
2023-01-09T09:55:39.002Z,88.9
2023-01-09T09:56:53.311Z,90.3
2023-01-09T09:58:07.541Z,91.4
2023-01-09T09:59:21.778Z,91
2023-01-09T10:00:35.993Z,90.5
2023-01-09T10:03:04.521Z,90.9
2023-01-09T10:04:18.773Z,90.2
2023-01-09T10:08:01.453Z,92.5
2023-01-09T10:09:15.745Z,93.6
2023-01-09T10:12:58.440Z,92.9
2023-01-09T10:14:12.674Z,93.5
2023-01-09T10:15:26.963Z,94.2
2023-01-09T10:16:41.211Z,94
2023-01-09T10:17:55.447Z,93.4
2023-01-09T10:19:09.661Z,92.9
2023-01-09T10:20:23.890Z,92.6
2023-01-09T10:21:38.184Z,91.7
2023-01-09T10:22:52.441Z,92.8
2023-01-09T10:24:06.668Z,92.6
2023-01-09T10:25:20.941Z,92.9
2023-01-09T10:26:34.284Z,92.9
2023-01-09T10:27:48.566Z,92.5
2023-01-09T10:29:02.847Z,91.4
2023-01-09T10:30:17.128Z,91.7
2023-01-09T10:31:31.417Z,91.5
2023-01-09T10:32:45.723Z,91.1
2023-01-09T10:33:59.998Z,91.1
2023-01-09T10:36:28.569Z,90.7
2023-01-09T10:37:42.857Z,90.2
2023-01-09T10:38:57.152Z,90.9
2023-01-09T10:40:11.427Z,91.8
2023-01-09T10:41:25.709Z,91.9
2023-01-09T10:42:39.993Z,92.2
2023-01-09T10:43:53.357Z,92
2023-01-09T10:45:07.644Z,91
2023-01-09T10:46:21.918Z,91.8
2023-01-09T10:47:35.245Z,92.6
2023-01-09T10:48:49.551Z,93.2
2023-01-09T10:50:03.838Z,92.7
2023-01-09T10:51:18.119Z,91.7
2023-01-09T10:52:32.411Z,92.3
2023-01-09T10:53:45.761Z,92.3
2023-01-09T10:55:00.033Z,92.7
2023-01-09T10:56:13.397Z,92.6
2023-01-09T10:58:41.015Z,92.5
2023-01-09T10:59:54.354Z,92.3
2023-01-09T11:01:07.706Z,92.8
2023-01-09T11:02:21.986Z,92.9
2023-01-09T11:03:35.321Z,92.6
2023-01-09T11:04:48.619Z,92.8
2023-01-09T11:06:02.857Z,92.2
2023-01-09T11:09:45.528Z,92.7
2023-01-09T11:10:59.825Z,92.7
2023-01-09T11:12:14.080Z,93.2
2023-01-09T11:14:42.535Z,94.5
2023-01-09T11:17:11.050Z,94.3
2023-01-09T11:18:25.292Z,94
2023-01-09T11:19:39.527Z,93.8
2023-01-09T11:20:53.754Z,93.8
2023-01-09T11:22:07.966Z,93.3
2023-01-09T11:23:22.278Z,93.4
2023-01-09T11:24:36.516Z,93.3
2023-01-09T11:25:50.737Z,92.9
2023-01-09T11:27:04.977Z,93.2
2023-01-09T11:28:19.206Z,93.5
2023-01-09T11:29:33.502Z,93.9
2023-01-09T11:30:47.741Z,94.1
2023-01-09T11:32:01.957Z,93.3
2023-01-09T11:33:16.202Z,93
2023-01-09T11:34:30.411Z,93.3
2023-01-09T11:36:59.065Z,93.6
2023-01-09T11:38:12.401Z,94
2023-01-09T11:39:26.670Z,94.1
2023-01-09T11:40:40.987Z,94.4
2023-01-09T11:44:23.828Z,96.4
2023-01-09T11:46:51.361Z,97
2023-01-09T11:48:05.583Z,97.8
2023-01-09T11:49:19.813Z,98.2
2023-01-09T11:50:34.043Z,98.4
2023-01-09T11:51:48.353Z,98.3
2023-01-09T11:53:02.593Z,98.6
2023-01-09T11:54:16.805Z,99
2023-01-09T11:55:31.042Z,99.2
2023-01-09T11:56:45.262Z,99.5
2023-01-09T11:57:59.577Z,99.8
2023-01-09T11:59:13.813Z,100
2023-01-09T12:00:28.027Z,100
2023-01-09T12:01:42.260Z,100
2023-01-09T12:02:56.493Z,100
2023-01-09T12:04:10.797Z,100
2023-01-09T12:05:25.023Z,100
2023-01-09T12:06:39.260Z,100
2023-01-09T12:07:53.475Z,100
2023-01-09T12:09:07.715Z,100
2023-01-09T12:10:22.003Z,99
2023-01-09T12:11:36.256Z,97.7
2023-01-09T12:12:50.487Z,96.5
2023-01-09T12:14:04.702Z,95.6
2023-01-09T12:16:33.295Z,92.1
2023-01-09T12:17:47.574Z,87.7
2023-01-09T12:19:00.931Z,86.3
2023-01-09T12:20:14.256Z,86.2
2023-01-09T12:21:28.536Z,87.3
2023-01-09T12:23:56.056Z,89.1
2023-01-09T12:25:10.372Z,88
2023-01-09T12:27:38.823Z,90.3
2023-01-09T12:28:53.058Z,91.7
2023-01-09T12:30:07.279Z,92.1
2023-01-09T12:31:21.580Z,91.6
2023-01-09T12:32:35.836Z,90.7
2023-01-09T12:33:50.052Z,90.5
2023-01-09T12:36:18.509Z,90.8
2023-01-09T12:37:32.817Z,90.3
2023-01-09T12:38:47.042Z,90.2
2023-01-09T12:40:01.278Z,89.7
2023-01-09T12:41:15.496Z,90.6
2023-01-09T12:42:29.729Z,90.3
2023-01-09T12:43:44.019Z,89.8
2023-01-09T12:44:58.266Z,89.8
2023-01-09T12:46:12.493Z,89.6
2023-01-09T12:47:26.723Z,89.1
2023-01-09T12:48:40.953Z,89.5
2023-01-09T12:49:55.258Z,89.4
2023-01-09T12:51:09.493Z,89.1
2023-01-09T12:53:38.013Z,88.6
2023-01-09T12:54:51.328Z,88.3
2023-01-09T12:56:05.609Z,89.2
2023-01-09T12:57:18.965Z,89.2
2023-01-09T12:58:32.298Z,90.1
2023-01-09T12:59:46.589Z,89.2
2023-01-09T13:01:00.880Z,89.4
2023-01-09T13:02:15.153Z,89
2023-01-09T13:03:29.446Z,88.8
2023-01-09T13:04:43.740Z,89.3
2023-01-09T13:07:12.299Z,89.3
2023-01-09T13:08:26.597Z,89.1
2023-01-09T13:09:40.884Z,88.9
2023-01-09T13:12:09.450Z,89.7
2023-01-09T13:13:22.758Z,89.3
2023-01-09T13:14:36.980Z,89.9
2023-01-09T13:15:51.283Z,90
2023-01-09T13:17:05.516Z,89.3
2023-01-09T13:18:19.754Z,89.4
2023-01-09T13:19:33.974Z,88.2
2023-01-09T13:20:48.209Z,88.2
2023-01-09T13:22:02.496Z,87.9
2023-01-09T13:23:16.743Z,87.9
2023-01-09T13:24:30.970Z,87.7
2023-01-09T13:25:45.198Z,88
2023-01-09T13:26:59.414Z,88.2
2023-01-09T13:28:13.711Z,87.9
2023-01-09T13:29:27.967Z,88
2023-01-09T13:30:42.180Z,88.2
2023-01-09T13:31:56.405Z,87.6
2023-01-09T13:33:10.634Z,88
2023-01-09T13:34:24.939Z,87
2023-01-09T13:35:39.179Z,86.8
2023-01-09T13:38:07.637Z,86.7
2023-01-09T13:39:21.857Z,86.6
2023-01-09T13:40:36.169Z,86
2023-01-09T13:41:50.405Z,87
2023-01-09T13:43:04.624Z,87.6
2023-01-09T13:44:18.922Z,87.4
2023-01-09T13:45:32.250Z,87.6
2023-01-09T13:46:46.538Z,88
2023-01-09T13:47:59.820Z,87.8
2023-01-09T13:49:14.047Z,88
2023-01-09T13:51:42.604Z,88.6
2023-01-09T13:52:56.826Z,88.5
2023-01-09T13:54:11.046Z,88.4
2023-01-09T13:55:25.265Z,88.4
2023-01-09T13:56:39.581Z,88.5
2023-01-09T13:57:53.812Z,88.7
2023-01-09T13:59:08.039Z,88.6
2023-01-09T14:00:22.260Z,88.3
2023-01-09T14:01:36.489Z,88.9
2023-01-09T14:02:50.801Z,88.2
2023-01-09T14:04:05.043Z,85.5
2023-01-09T14:05:19.257Z,85.4
2023-01-09T14:06:33.502Z,86.5
2023-01-09T14:07:47.715Z,88.1
2023-01-09T14:09:02.024Z,88
2023-01-09T14:11:30.497Z,88.7
2023-01-09T14:12:44.705Z,89.6
2023-01-09T14:13:58.939Z,90.2
2023-01-09T14:15:13.250Z,90.9
2023-01-09T14:16:27.477Z,91.1
2023-01-09T14:17:41.714Z,91.7
2023-01-09T14:18:56.000Z,92
2023-01-09T14:20:09.328Z,91.9
2023-01-09T14:21:23.603Z,92
2023-01-09T14:22:36.902Z,92.5
2023-01-09T14:25:05.435Z,92.5
2023-01-09T14:26:19.669Z,93
2023-01-09T14:27:33.900Z,93
2023-01-09T14:28:48.124Z,93.1
2023-01-09T14:30:02.357Z,92.9
2023-01-09T14:31:16.646Z,92.9
2023-01-09T14:32:30.898Z,92.5
2023-01-09T14:33:45.116Z,93
2023-01-09T14:34:59.355Z,92
2023-01-09T14:36:13.581Z,92.5
2023-01-09T14:37:27.881Z,92.6
2023-01-09T14:38:42.122Z,92.8
2023-01-09T14:39:56.339Z,93
2023-01-09T14:41:10.573Z,93.1
2023-01-09T14:42:24.000Z,93.7
2023-01-09T14:44:53.335Z,94.6
2023-01-09T14:46:07.575Z,94.4
2023-01-09T14:47:21.785Z,94.9
2023-01-09T14:48:36.025Z,95.4
2023-01-09T14:51:04.570Z,95.8
2023-01-09T14:52:18.791Z,95.9
2023-01-09T14:53:33.071Z,96.1
2023-01-09T14:56:00.685Z,96.8
2023-01-09T14:57:14.965Z,97.3
2023-01-09T14:58:29.265Z,97.8
2023-01-09T14:59:42.558Z,98.2
2023-01-09T15:00:56.787Z,99
2023-01-09T15:02:11.021Z,99.3
2023-01-09T15:03:25.240Z,98.8
2023-01-09T15:04:39.474Z,98.9
2023-01-09T15:05:53.780Z,99.2
2023-01-09T15:08:22.242Z,98.8
2023-01-09T15:09:36.465Z,98.5
2023-01-09T15:10:50.703Z,98.2
2023-01-09T15:12:05.002Z,97.9
2023-01-09T15:13:19.240Z,97.9
2023-01-09T15:14:33.460Z,98.3
2023-01-09T15:15:47.693Z,98.2
2023-01-09T15:17:01.908Z,98.4
2023-01-09T15:18:16.207Z,97.9
2023-01-09T15:19:30.460Z,97.7
2023-01-09T15:20:44.686Z,97.6
2023-01-09T15:21:58.900Z,97.6
2023-01-09T15:23:13.137Z,97.1
2023-01-09T15:24:27.434Z,97
2023-01-09T15:25:41.669Z,97.1
2023-01-09T15:26:55.910Z,97.3
2023-01-09T15:28:10.129Z,97.3
2023-01-09T15:29:24.361Z,97.2
2023-01-09T15:30:38.725Z,97.5
2023-01-09T15:31:53.010Z,97.5
2023-01-09T15:33:06.349Z,97.6
2023-01-09T15:34:20.632Z,97.4
2023-01-09T15:35:34.919Z,97.5
2023-01-09T15:36:49.216Z,97.7
2023-01-09T15:38:02.505Z,97.8
2023-01-09T15:39:16.736Z,97.5
2023-01-09T15:40:31.024Z,97.6
2023-01-09T15:41:45.276Z,97.5
2023-01-09T15:42:59.504Z,97.3
2023-01-09T15:44:13.716Z,97.4
2023-01-09T15:45:27.942Z,97.5
2023-01-09T15:46:42.260Z,97.3
2023-01-09T15:47:56.495Z,97.3
2023-01-09T15:49:10.710Z,97.5
2023-01-09T15:50:24.952Z,97.7
2023-01-09T15:51:39.182Z,97.3
2023-01-09T15:52:53.480Z,96.6
2023-01-09T15:54:07.718Z,96.6
2023-01-09T15:55:21.942Z,96.9
2023-01-09T15:56:36.176Z,96.9
2023-01-09T15:57:50.400Z,96.7
2023-01-09T15:59:04.695Z,96.3
2023-01-09T16:00:18.931Z,96.2
2023-01-09T16:01:33.157Z,95.9
2023-01-09T16:02:47.380Z,96.1
2023-01-09T16:04:01.622Z,95.8
2023-01-09T16:05:15.961Z,95.5
2023-01-09T16:06:30.261Z,95.4
2023-01-09T16:07:44.491Z,95.2
2023-01-09T16:08:58.874Z,94.9
2023-01-09T16:10:12.234Z,95.1
2023-01-09T16:11:26.554Z,95.2
2023-01-09T16:12:40.768Z,94.9
2023-01-09T16:13:55.009Z,95.3
2023-01-09T16:15:09.223Z,94.9
2023-01-09T16:16:23.531Z,95.3
2023-01-09T16:17:37.779Z,94.3
2023-01-09T16:18:51.990Z,93.7
2023-01-09T16:20:06.220Z,93
2023-01-09T16:21:20.447Z,93.3
2023-01-09T16:22:34.754Z,93.3
2023-01-09T16:23:48.985Z,92.7
2023-01-09T16:25:03.365Z,92.8
2023-01-09T16:26:17.644Z,92.8
2023-01-09T16:27:31.876Z,93.1
2023-01-09T16:28:46.242Z,93.7
2023-01-09T16:30:00.471Z,94.4
2023-01-09T16:31:14.717Z,93.7
2023-01-09T16:32:28.936Z,93.8
2023-01-09T16:33:43.213Z,94.1
2023-01-09T16:34:57.567Z,94.8
2023-01-09T16:36:11.867Z,94.7
2023-01-09T16:37:26.090Z,95.1
2023-01-09T16:38:40.330Z,95.4
2023-01-09T16:39:54.612Z,95.8
2023-01-09T16:41:09.011Z,96.1
2023-01-09T16:42:23.340Z,95.7
2023-01-09T16:43:37.621Z,95.7
2023-01-09T16:44:51.893Z,96
2023-01-09T16:46:06.297Z,95.8
2023-01-09T16:47:20.606Z,95.8
2023-01-09T16:48:34.875Z,95.9
2023-01-09T16:49:49.152Z,96.2
2023-01-09T16:51:03.568Z,96.8
2023-01-09T16:52:17.802Z,97.1
2023-01-09T16:53:32.081Z,97.4
2023-01-09T16:54:46.324Z,97.9
2023-01-09T16:56:00.601Z,98.2
2023-01-09T16:57:14.920Z,98.4
2023-01-09T16:58:29.203Z,98.9
2023-01-09T17:00:56.919Z,99
2023-01-09T17:02:11.271Z,98.7
2023-01-09T17:03:25.626Z,98.4
2023-01-09T17:04:38.976Z,98.3
2023-01-09T17:05:52.317Z,98.5
2023-01-09T17:07:06.659Z,98.7
2023-01-09T17:08:20.999Z,98.5
2023-01-09T17:09:34.334Z,98.7
2023-01-09T17:10:48.756Z,98.8
2023-01-09T17:12:03.074Z,98.8
2023-01-09T17:13:17.345Z,98.9
2023-01-09T17:14:31.637Z,98.8
2023-01-09T17:17:00.230Z,98.8
2023-01-09T17:18:14.464Z,98.8
2023-01-09T17:19:28.784Z,98.6
2023-01-09T17:20:43.065Z,98.5
2023-01-09T17:21:57.481Z,98.8
2023-01-09T17:23:11.790Z,98.9
2023-01-09T17:24:26.089Z,98.8
2023-01-09T17:25:40.365Z,98.9
2023-01-09T17:26:54.763Z,98.8
2023-01-09T17:28:09.013Z,98.8
2023-01-09T17:29:23.285Z,98.9
2023-01-09T17:30:37.568Z,98.7
2023-01-09T17:31:51.976Z,98.7
2023-01-09T17:33:06.310Z,98.7
2023-01-09T17:34:20.581Z,98.8
2023-01-09T17:35:34.871Z,98.8
2023-01-09T17:36:49.280Z,99
2023-01-09T17:38:03.569Z,99
2023-01-09T17:39:17.842Z,99
2023-01-09T17:40:32.190Z,99.2
2023-01-09T17:41:46.602Z,99.2
2023-01-09T17:43:00.934Z,99.3
2023-01-09T17:44:14.328Z,99.5
2023-01-09T17:45:28.659Z,99.5
2023-01-09T17:46:43.029Z,99.5
2023-01-09T17:47:57.359Z,99.7